Time;durP1;ratioP1;P1;durP2;ratioP2;P2;SDS_P1;SDS_P2;PMS_P1;PMS_P2;Temp;Humidity;BMP_temperature;BMP_pressure;BME280_temperature;BME280_humidity;BME280_pressure;Samples;Min_cycle;Max_cycle;Signal;HPM_P1;HPM_P2
2022/04/19 00:01:29;;;;;;;3.55;2.88;;;;;;;8.52;53.07;100943.41;5036920;28;20369;-81
2022/04/19 00:04:01;;;;;;;3.30;2.50;;;;;;;8.49;53.31;100948.63;5028401;28;20041;-84
2022/04/19 00:06:28;;;;;;;6.18;2.75;;;;;;;8.42;53.54;100939.88;5028822;28;20045;-84
2022/04/19 00:08:55;;;;;;;3.53;2.90;;;;;;;8.39;53.77;100947.66;5039547;28;20049;-83
2022/04/19 00:11:22;;;;;;;2.85;2.30;;;;;;;8.34;53.93;100948.53;5045597;28;20102;-84
2022/04/19 00:13:49;;;;;;;2.17;2.08;;;;;;;8.28;53.99;100936.34;5060085;28;20037;-82
2022/04/19 00:16:21;;;;;;;3.92;2.38;;;;;;;8.22;54.29;100937.16;5028822;28;20801;-82
2022/04/19 00:18:51;;;;;;;3.42;2.30;;;;;;;8.17;54.84;100935.41;5040668;28;20252;-84
2022/04/19 00:21:23;;;;;;;3.25;2.28;;;;;;;8.14;54.98;100936.25;5028397;28;20121;-84
2022/04/19 00:23:50;;;;;;;3.50;2.90;;;;;;;8.09;54.76;100927.53;5028526;28;20053;-84
2022/04/19 00:26:17;;;;;;;3.08;2.78;;;;;;;8.03;55.21;100933.59;5030038;28;20077;-83
2022/04/19 00:28:47;;;;;;;2.03;1.92;;;;;;;7.98;55.41;100927.47;5040792;28;20070;-84
2022/04/19 00:31:14;;;;;;;4.03;2.75;;;;;;;7.94;55.36;100921.38;5042919;28;20041;-84
2022/04/19 00:33:47;;;;;;;4.35;2.83;;;;;;;7.92;55.65;100917.00;5045346;28;20172;-82
2022/04/19 00:36:18;;;;;;;4.30;3.10;;;;;;;7.88;55.68;100923.06;5041393;28;20059;-85
2022/04/19 00:38:45;;;;;;;4.18;2.85;;;;;;;7.82;55.88;100923.88;5040878;28;20046;-84
2022/04/19 00:41:12;;;;;;;3.47;2.80;;;;;;;7.82;56.50;100923.00;5041199;28;20048;-83
2022/04/19 00:43:40;;;;;;;4.90;2.72;;;;;;;7.80;56.48;100923.00;5045383;28;20054;-84
2022/04/19 00:46:07;;;;;;;2.25;2.05;;;;;;;7.73;56.37;100919.50;5040059;28;20046;-83
2022/04/19 00:48:34;;;;;;;4.03;2.75;;;;;;;7.71;56.65;100921.19;5042721;28;20085;-84
2022/04/19 00:51:02;;;;;;;5.80;2.55;;;;;;;7.67;56.83;100916.84;5045276;28;20157;-82
2022/04/19 00:53:34;;;;;;;2.65;2.45;;;;;;;7.65;56.92;100917.69;5027438;28;20065;-83
2022/04/19 00:56:05;;;;;;;4.65;2.80;;;;;;;7.61;57.63;100922.88;5056407;28;20091;-84
2022/04/19 00:58:39;;;;;;;3.55;2.65;;;;;;;7.59;58.01;100922.00;5029724;28;20503;-82
2022/04/19 01:01:07;;;;;;;2.80;2.60;;;;;;;7.57;57.92;100923.72;5042139;28;20044;-84
2022/04/19 01:03:40;;;;;;;4.38;3.45;;;;;;;7.55;58.35;100916.75;5044680;28;20060;-84
2022/04/19 01:06:12;;;;;;;2.88;2.65;;;;;;;7.52;58.04;100920.22;5029022;28;20045;-83
2022/04/19 01:08:40;;;;;;;5.25;2.38;;;;;;;7.51;58.45;100926.28;5038559;28;20053;-84
2022/04/19 01:13:57;;;;;;;3.53;2.78;;;;;;;7.41;58.39;100922.72;5028875;28;20038;-82
2022/04/19 01:16:25;;;;;;;7.32;2.70;;;;;;;7.38;59.07;100927.00;5057824;28;20025;-82
2022/04/19 01:18:53;;;;;;;2.97;2.50;;;;;;;7.33;59.69;100926.13;5026144;28;20055;-83
2022/04/19 01:21:20;;;;;;;3.47;2.40;;;;;;;7.31;59.39;100927.84;5031070;28;20105;-83
2022/04/19 01:23:47;;;;;;;3.58;2.92;;;;;;;7.28;59.49;100920.88;5027354;28;20030;-82
2022/04/19 01:26:17;;;;;;;4.25;2.70;;;;;;;7.27;59.98;100929.53;5025165;28;20029;-82
2022/04/19 01:28:47;;;;;;;4.35;2.83;;;;;;;7.27;59.94;100924.31;5043607;28;20076;-84
2022/04/19 01:31:14;;;;;;;5.20;3.28;;;;;;;7.23;60.18;100925.16;5033041;28;20049;-85
2022/04/19 01:33:45;;;;;;;3.00;2.50;;;;;;;7.22;60.25;100926.91;5029888;28;20045;-84
2022/04/19 01:36:15;;;;;;;3.25;2.95;;;;;;;7.21;60.62;100926.88;5045659;28;20108;-83
2022/04/19 01:38:42;;;;;;;5.20;3.30;;;;;;;7.19;60.91;100929.47;5043776;28;20586;-83
2022/04/19 01:41:15;;;;;;;3.15;2.85;;;;;;;7.17;61.04;100925.09;5045430;28;20056;-84
2022/04/19 01:43:47;;;;;;;5.03;3.40;;;;;;;7.16;60.88;100924.22;5041592;28;20364;-84
2022/04/19 01:46:19;;;;;;;3.80;3.50;;;;;;;7.13;60.78;100926.78;5044356;28;20056;-83
2022/04/19 01:48:51;;;;;;;4.82;3.55;;;;;;;7.10;60.91;100926.78;5041917;28;20098;-83
2022/04/19 01:51:22;;;;;;;6.18;3.50;;;;;;;7.07;61.31;100921.53;5040441;28;20074;-82
2022/04/19 01:53:50;;;;;;;3.45;3.03;;;;;;;7.05;61.48;100921.53;5041813;28;20105;-84
2022/04/19 01:56:19;;;;;;;5.78;3.35;;;;;;;7.01;62.18;100917.13;5041530;28;20140;-84
2022/04/19 01:58:48;;;;;;;3.42;3.13;;;;;;;7.01;61.82;100921.47;5040468;28;20064;-84
2022/04/19 02:01:28;;;;;;;5.82;2.95;;;;;;;6.97;62.26;100924.91;5044466;28;20069;-84
2022/04/19 02:04:00;;;;;;;4.55;2.97;;;;;;;6.92;61.98;100920.53;5044177;28;20057;-84
2022/04/19 02:06:28;;;;;;;3.28;2.97;;;;;;;6.88;61.97;100915.28;5061371;28;20079;-83
2022/04/19 02:09:03;;;;;;;3.15;2.88;;;;;;;6.87;62.86;100916.13;5044495;28;20043;-83
2022/04/19 02:11:30;;;;;;;3.70;3.05;;;;;;;6.86;62.95;100919.59;5030927;28;20068;-83
2022/04/19 02:13:59;;;;;;;3.13;2.78;;;;;;;6.84;63.16;100922.16;5045274;28;20113;-84
2022/04/19 02:16:26;;;;;;;3.38;2.47;;;;;;;6.83;63.10;100917.84;5042332;28;20042;-85
2022/04/19 02:18:59;;;;;;;3.10;2.85;;;;;;;6.81;63.16;100916.94;5026100;28;20056;-84
2022/04/19 02:21:30;;;;;;;3.17;2.22;;;;;;;6.79;62.93;100916.94;5027202;28;20033;-85
2022/04/19 02:23:57;;;;;;;2.47;2.33;;;;;;;6.78;63.04;100912.56;5029134;28;20052;-82
2022/04/19 02:26:26;;;;;;;3.15;2.85;;;;;;;6.78;63.25;100909.13;5044292;28;20109;-83
2022/04/19 02:28:53;;;;;;;2.63;2.42;;;;;;;6.73;63.32;100906.44;5044047;28;20049;-83
2022/04/19 02:31:26;;;;;;;2.50;2.13;;;;;;;6.67;63.23;100906.38;5026277;28;20076;-83
2022/04/19 02:33:58;;;;;;;3.83;2.38;;;;;;;6.65;63.79;100902.91;5044270;28;20461;-84
2022/04/19 02:36:30;;;;;;;4.13;2.67;;;;;;;6.61;64.25;100908.94;5043966;28;20451;-82
2022/04/19 02:38:59;;;;;;;2.42;2.00;;;;;;;6.57;64.19;100905.41;5021759;28;20041;-82
2022/04/19 02:41:31;;;;;;;4.05;2.10;;;;;;;6.56;64.23;100900.19;5044531;28;20061;-84
2022/04/19 02:43:59;;;;;;;2.65;2.47;;;;;;;6.52;64.44;100906.19;5041239;28;20049;-83
2022/04/19 02:46:29;;;;;;;2.15;2.00;;;;;;;6.48;64.98;100904.41;5025781;28;20138;-84
2022/04/19 02:48:58;;;;;;;3.42;2.40;;;;;;;6.48;64.79;100902.72;5039035;28;20034;-84
2022/04/19 02:51:27;;;;;;;2.53;2.22;;;;;;;6.49;64.86;100899.22;5042207;28;20042;-83
2022/04/19 02:53:58;;;;;;;3.25;2.20;;;;;;;6.48;65.32;100901.81;5026718;28;20080;-83
2022/04/19 02:56:31;;;;;;;3.28;2.33;;;;;;;6.45;64.92;100898.34;5027511;28;20064;-83
2022/04/19 02:58:59;;;;;;;3.47;2.30;;;;;;;6.45;65.39;100894.84;5023725;28;20040;-83
2022/04/19 03:01:32;;;;;;;3.00;2.38;;;;;;;6.44;65.43;100893.09;5042391;28;20076;-83
2022/04/19 03:04:00;;;;;;;2.20;2.00;;;;;;;6.43;65.68;100892.22;5028828;28;20072;-82
2022/04/19 03:06:31;;;;;;;3.80;2.65;;;;;;;6.41;65.99;100890.47;5027986;28;20109;-83
2022/04/19 03:09:01;;;;;;;;;;;;;;;6.38;66.41;100896.50;5027022;28;20292;-83
2022/04/19 03:11:33;;;;;;;2.38;2.17;;;;;;;6.35;66.35;100893.88;5029001;28;20192;-83
2022/04/19 03:14:00;;;;;;;3.53;2.92;;;;;;;6.37;66.36;100897.34;5042243;28;20038;-84
2022/04/19 03:16:27;;;;;;;4.43;3.40;;;;;;;6.36;66.16;100897.34;5046391;28;20071;-84
2022/04/19 03:18:54;;;;;;;4.13;3.22;;;;;;;6.31;66.41;100893.81;5023907;28;20049;-83
2022/04/19 03:21:22;;;;;;;4.05;3.20;;;;;;;6.27;66.64;100892.88;5026688;28;20061;-83
2022/04/19 03:29:22;;;;;;;2.72;2.53;;;;;;;6.20;67.65;100896.28;5047319;28;20033;-82
2022/04/19 03:31:49;;;;;;;3.63;2.67;;;;;;;6.18;68.23;100900.56;5046168;28;20059;-83
2022/04/19 03:34:18;;;;;;;2.83;2.63;;;;;;;6.15;68.69;100900.53;5040448;28;20049;-85
2022/04/19 03:36:48;;;;;;;5.47;4.00;;;;;;;6.12;68.86;100899.63;5045872;28;20333;-83
2022/04/19 03:39:19;;;;;;;2.88;2.55;;;;;;;6.09;68.35;100904.81;5044897;28;20041;-83
2022/04/19 03:41:58;;;;;;;3.22;3.03;;;;;;;6.05;68.45;100905.63;5050133;28;20032;-84
2022/04/19 03:44:40;;;;;;;3.10;2.83;;;;;;;6.01;69.13;100909.03;5048023;28;20029;-83
2022/04/19 03:47:10;;;;;;;3.05;2.65;;;;;;;5.97;68.69;100912.38;5032696;28;20041;-84
2022/04/19 03:49:42;;;;;;;2.95;2.75;;;;;;;5.96;69.06;100911.53;5063940;28;20075;-84
2022/04/19 03:52:13;;;;;;;4.05;3.13;;;;;;;5.95;69.10;100908.91;5030389;28;20685;-83
2022/04/19 03:54:40;;;;;;;5.70;2.13;;;;;;;5.92;69.14;100914.06;5033897;28;20117;-84
2022/04/19 03:57:27;;;;;;;3.28;2.97;;;;;;;5.84;69.33;100916.56;5045492;28;20029;-84
2022/04/19 03:59:59;;;;;;;3.58;2.65;;;;;;;5.81;69.63;100919.09;5032453;28;20071;-83
2022/04/19 04:02:28;;;;;;;3.45;3.15;;;;;;;5.76;70.20;100916.44;5048533;28;20068;-82
2022/04/19 04:04:58;;;;;;;3.30;3.00;;;;;;;5.73;70.70;100915.50;5048193;28;20045;-83
2022/04/19 04:07:27;;;;;;;3.10;2.70;;;;;;;5.70;70.41;100915.47;5029559;28;20147;-84
2022/04/19 04:09:57;;;;;;;3.95;2.67;;;;;;;5.65;70.89;100922.34;5025789;28;20060;-81
2022/04/19 04:12:24;;;;;;;3.15;2.85;;;;;;;5.61;71.04;100926.59;5042960;28;20048;-83
2022/04/19 04:14:57;;;;;;;3.03;2.80;;;;;;;5.58;71.03;100922.22;5028294;28;20053;-83
2022/04/19 04:17:27;;;;;;;2.70;2.47;;;;;;;5.58;70.79;100922.22;5025866;28;20034;-84
2022/04/19 04:19:58;;;;;;;3.10;2.90;;;;;;;5.55;71.54;100918.69;5037610;28;20056;-82
2022/04/19 04:22:26;;;;;;;4.25;3.03;;;;;;;5.52;71.67;100929.91;5044308;28;20075;-83
2022/04/19 04:24:53;;;;;;;4.45;2.83;;;;;;;5.48;70.84;100925.53;5026080;28;20080;-84
2022/04/19 04:27:20;;;;;;;5.20;2.72;;;;;;;5.43;71.64;100925.44;5025023;28;20168;-84
2022/04/19 04:29:50;;;;;;;4.88;2.92;;;;;;;5.41;71.53;100931.44;5038022;28;20295;-84
2022/04/19 04:32:20;;;;;;;4.70;2.88;;;;;;;5.37;71.18;100933.16;5045141;28;20076;-84
2022/04/19 04:34:47;;;;;;;3.38;2.70;;;;;;;5.33;71.08;100933.06;5035178;28;20038;-83
2022/04/19 04:37:14;;;;;;;3.53;2.78;;;;;;;5.28;71.05;100927.78;5027037;28;20080;-83
2022/04/19 04:39:44;;;;;;;2.50;2.25;;;;;;;5.24;71.67;100929.47;5029421;28;20048;-83
2022/04/19 04:42:11;;;;;;;3.83;3.25;;;;;;;5.24;71.34;100920.78;5045041;28;20041;-84
2022/04/19 04:44:38;;;;;;;6.65;2.75;;;;;;;5.21;71.37;100929.38;5028234;28;20060;-84
2022/04/19 04:50:01;;;;;;;3.28;2.97;;;;;;;5.18;71.06;100934.53;5000665;28;20052;-84
2022/04/19 04:52:31;;;;;;;3.90;3.25;;;;;;;5.16;71.39;100936.22;5031398;28;20034;-83
2022/04/19 04:54:59;;;;;;;4.10;2.60;;;;;;;5.18;71.52;100928.47;5040957;28;20036;-84
2022/04/19 04:57:31;;;;;;;4.18;2.92;;;;;;;5.20;71.08;100939.75;5048512;28;20071;-83
2022/04/19 04:59:59;;;;;;;3.88;3.17;;;;;;;5.18;70.99;100933.66;5029354;28;20061;-83
2022/04/19 05:02:25;;;;;;;3.50;3.20;;;;;;;5.19;71.21;100941.47;5045861;28;20325;-84
2022/04/19 05:05:00;;;;;;;4.70;3.10;;;;;;;5.21;71.33;100951.88;5044938;28;20088;-83
2022/04/19 05:07:39;;;;;;;3.25;2.45;;;;;;;5.20;70.98;100947.53;5045019;28;20048;-84
2022/04/19 05:10:14;;;;;;;3.15;2.45;;;;;;;5.19;70.85;100949.25;5046692;28;20121;-84
2022/04/19 05:12:43;;;;;;;3.38;2.35;;;;;;;5.21;70.87;100947.56;5043162;28;20792;-84
2022/04/19 05:15:10;;;;;;;4.55;3.00;;;;;;;5.23;70.69;100947.59;5030622;28;20364;-84
2022/04/19 05:17:38;;;;;;;4.80;3.17;;;;;;;5.28;70.47;100945.97;5029255;28;20087;-84
2022/04/19 05:20:06;;;;;;;3.45;3.15;;;;;;;5.29;69.61;100945.09;5022999;28;20049;-84
2022/04/19 05:22:33;;;;;;;3.75;2.50;;;;;;;5.30;69.53;100946.84;5043654;28;20045;-85
2022/04/19 05:25:07;;;;;;;2.67;2.30;;;;;;;5.34;69.14;100940.00;5044074;28;20065;-84
2022/04/19 05:27:40;;;;;;;2.85;2.33;;;;;;;5.35;68.43;100933.97;5036673;28;20049;-84
2022/04/19 05:30:10;;;;;;;3.00;2.70;;;;;;;5.38;68.48;100949.56;5040536;28;20397;-83
2022/04/19 05:32:37;;;;;;;7.93;2.90;;;;;;;5.38;68.27;100949.56;5024728;28;20072;-84
2022/04/19 05:35:04;;;;;;;3.15;2.70;;;;;;;5.37;68.43;100948.72;5055272;28;20033;-84
2022/04/19 05:37:31;;;;;;;3.58;2.97;;;;;;;5.39;68.62;100949.59;5039818;28;20065;-83
2022/04/19 05:40:02;;;;;;;3.65;2.33;;;;;;;5.41;68.37;100954.81;5045265;28;20129;-83
2022/04/19 05:42:33;;;;;;;3.83;2.67;;;;;;;5.44;68.62;100958.34;5046846;28;20148;-84
2022/04/19 05:45:03;;;;;;;4.75;3.05;;;;;;;5.44;68.44;100944.50;5047029;28;20038;-84
2022/04/19 05:47:38;;;;;;;4.10;2.90;;;;;;;5.50;67.90;100952.41;5029195;28;20109;-83
2022/04/19 05:50:14;;;;;;;5.05;2.88;;;;;;;5.51;67.92;100946.34;5026936;28;20123;-84
2022/04/19 05:52:40;;;;;;;5.70;3.00;;;;;;;5.53;67.30;100941.16;5024113;28;20037;-85
2022/04/19 05:55:14;;;;;;;4.15;2.80;;;;;;;5.57;66.82;100945.59;5044136;28;20056;-83
2022/04/19 05:57:44;;;;;;;2.63;2.42;;;;;;;5.59;65.64;100944.75;5039464;28;20045;-83
2022/04/19 06:00:11;;;;;;;5.57;3.80;;;;;;;5.63;65.60;100954.34;5024869;28;20150;-84
2022/04/19 06:05:24;;;;;;;4.22;2.33;;;;;;;5.71;65.31;100950.97;5012450;28;20055;-84
2022/04/19 06:07:54;;;;;;;4.38;2.53;;;;;;;5.73;65.00;100964.88;5052830;28;20056;-84
2022/04/19 06:10:29;;;;;;;2.45;2.20;;;;;;;5.80;64.96;100953.72;5041134;28;20049;-84
2022/04/19 06:13:01;;;;;;;2.63;2.42;;;;;;;5.87;64.34;100957.31;5025830;28;20035;-83
2022/04/19 06:15:28;;;;;;;7.55;3.72;;;;;;;5.91;63.96;100957.34;5009121;28;20481;-86
2022/04/19 06:17:55;;;;;;;3.28;2.40;;;;;;;5.97;63.12;100951.38;5039821;28;20045;-84
2022/04/19 06:20:22;;;;;;;4.28;2.13;;;;;;;6.07;62.75;100960.22;5036453;28;20067;-84
2022/04/19 06:22:49;;;;;;;2.20;1.90;;;;;;;6.13;60.33;100955.97;5031529;28;20079;-85
2022/04/19 06:25:19;;;;;;;2.50;2.08;;;;;;;6.19;60.93;100960.41;5013245;28;20045;-85
2022/04/19 06:27:49;;;;;;;4.72;2.13;;;;;;;6.26;60.66;100957.03;5022766;28;20050;-85
2022/04/19 06:30:16;;;;;;;8.27;3.58;;;;;;;6.35;59.41;100958.00;5037331;28;20055;-84
2022/04/19 06:32:43;;;;;;;3.05;1.95;;;;;;;6.41;57.04;100958.97;5049321;28;20050;-84
2022/04/19 06:35:15;;;;;;;3.47;1.92;;;;;;;6.48;57.18;100957.31;5026412;28;20038;-84
2022/04/19 06:37:48;;;;;;;2.63;2.30;;;;;;;6.54;57.15;100951.31;5038447;28;20488;-85
2022/04/19 06:40:16;;;;;;;3.97;2.20;;;;;;;6.61;55.62;100942.75;5026755;28;20418;-84
2022/04/19 06:42:46;;;;;;;3.05;1.88;;;;;;;6.81;54.74;100953.38;5039098;28;20056;-84
2022/04/19 06:45:13;;;;;;;3.17;2.03;;;;;;;7.06;54.64;100945.81;5034376;28;20044;-84
2022/04/19 06:47:44;;;;;;;2.15;1.92;;;;;;;7.31;53.77;100949.53;5040562;28;20037;-84
2022/04/19 06:50:12;;;;;;;3.33;2.10;;;;;;;7.66;52.89;100943.75;5039257;28;20030;-84
2022/04/19 06:52:44;;;;;;;1.75;1.65;;;;;;;8.09;52.91;100956.22;5037806;28;20132;-85
2022/04/19 06:55:11;;;;;;;4.35;1.70;;;;;;;8.58;52.05;100953.88;5023686;28;20038;-86
2022/04/19 06:57:40;;;;;;;6.72;1.98;;;;;;;9.10;50.65;100947.94;5039389;28;20037;-84
2022/04/19 07:00:08;;;;;;;2.47;2.08;;;;;;;9.59;49.48;100948.84;5020610;28;20053;-84
2022/04/19 07:02:35;;;;;;;2.58;2.00;;;;;;;10.03;48.08;100949.69;5028345;28;20065;-86
2022/04/19 07:05:02;;;;;;;2.17;2.00;;;;;;;10.33;46.62;100951.34;5028566;28;20113;-83
2022/04/19 07:07:32;;;;;;;4.10;2.40;;;;;;;10.58;45.28;100956.53;5027615;28;20065;-86
2022/04/19 07:10:11;;;;;;;4.38;1.75;;;;;;;10.84;43.92;100959.03;5043670;28;20045;-86
2022/04/19 07:12:41;;;;;;;2.63;1.92;;;;;;;10.94;43.17;100954.63;5048998;28;20037;-85
2022/04/19 07:15:14;;;;;;;1.40;1.30;;;;;;;11.13;41.74;100954.50;5031485;28;20496;-85
2022/04/19 07:17:44;;;;;;;2.63;2.00;;;;;;;11.33;41.39;100959.59;5037401;28;20038;-86
2022/04/19 07:28:35;;;;;;;;;;;;;;;13.02;37.38;100959.59;5032553;28;20042;-85
2022/04/19 07:31:06;;;;;;;2.13;1.23;;;;;;;13.43;37.38;100965.16;5046415;28;19925;-83
2022/04/19 07:33:37;;;;;;;1.73;1.50;;;;;;;13.85;37.05;100967.09;5017347;28;20604;-86
2022/04/19 07:36:06;;;;;;;1.65;1.55;;;;;;;14.26;35.79;100964.59;5026400;28;20092;-85
2022/04/19 07:38:37;;;;;;;3.10;1.80;;;;;;;14.43;33.55;100966.91;5044440;28;20113;-87
2022/04/19 07:41:04;;;;;;;1.60;1.50;;;;;;;14.44;33.42;100968.63;5044032;28;20454;-87
2022/04/19 07:43:32;;;;;;;2.28;1.48;;;;;;;14.48;33.49;100970.31;5029210;28;20141;-86
2022/04/19 07:46:01;;;;;;;2.00;1.25;;;;;;;14.57;33.32;100959.59;5029783;28;20045;-87
2022/04/19 07:48:31;;;;;;;1.73;1.50;;;;;;;14.82;33.24;100959.09;5044074;28;20411;-85
2022/04/19 07:51:01;;;;;;;1.83;1.52;;;;;;;15.00;32.16;100961.31;5045592;28;20061;-84
2022/04/19 07:53:30;;;;;;;1.95;1.38;;;;;;;15.12;32.69;100965.47;5027011;28;20068;-87
2022/04/19 07:55:59;;;;;;;1.42;1.23;;;;;;;15.26;30.49;100959.00;5046014;28;20195;-85
2022/04/19 07:58:34;;;;;;;1.67;1.30;;;;;;;15.05;30.81;100959.44;5031465;28;20037;-84
2022/04/19 08:01:13;;;;;;;1.40;1.23;;;;;;;15.06;31.34;100955.06;5029635;28;20029;-86
2022/04/19 08:03:41;;;;;;;6.28;4.05;;;;;;;15.51;30.56;100949.59;5032126;28;20505;-84
2022/04/19 08:06:08;;;;;;;2.25;1.88;;;;;;;15.98;29.22;100951.06;5029765;28;20101;-85
2022/04/19 08:08:37;;;;;;;2.83;1.52;;;;;;;16.43;29.10;100948.06;5035562;28;20061;-83
2022/04/19 08:11:05;;;;;;;1.88;1.73;;;;;;;16.77;28.24;100943.59;5039723;28;20408;-84
2022/04/19 08:13:40;;;;;;;1.55;1.45;;;;;;;17.02;27.51;100936.63;5032520;28;20088;-85
2022/04/19 08:16:16;;;;;;;1.42;1.00;;;;;;;17.35;27.37;100940.91;5054911;28;20054;-86
2022/04/19 08:18:44;;;;;;;3.42;1.85;;;;;;;17.83;26.55;100928.72;5021355;28;20045;-87
2022/04/19 08:21:17;;;;;;;2.45;1.58;;;;;;;18.15;26.13;100930.25;5020119;28;20069;-83
2022/04/19 08:23:47;;;;;;;1.52;1.42;;;;;;;18.08;25.86;100933.16;5032270;28;20045;-85
2022/04/19 08:26:14;;;;;;;1.73;1.20;;;;;;;17.69;26.20;100935.34;5024035;28;20030;-85
2022/04/19 08:28:41;;;;;;;2.05;1.33;;;;;;;17.72;26.02;100941.44;5035592;28;20136;-83
2022/04/19 08:31:09;;;;;;;0.77;0.70;;;;;;;18.00;25.95;100936.97;5038919;28;20096;-84
2022/04/19 08:33:41;;;;;;;0.85;0.85;;;;;;;18.32;25.62;100937.59;5041998;28;20739;-87
2022/04/19 08:36:14;;;;;;;0.85;0.77;;;;;;;18.42;25.15;100932.81;5041149;28;20030;-86
2022/04/19 08:38:43;;;;;;;0.73;0.70;;;;;;;18.34;25.04;100934.88;5041663;28;20081;-86
2022/04/19 08:41:17;;;;;;;1.38;0.88;;;;;;;18.67;24.68;100939.84;5050139;28;20659;-84
2022/04/19 08:43:47;;;;;;;19.85;14.85;;;;;;;18.95;24.36;100942.31;5025664;28;20109;-86
2022/04/19 08:46:14;;;;;;;2.47;1.42;;;;;;;19.47;23.97;100931.38;5049207;28;20105;-87
2022/04/19 08:48:42;;;;;;;1.45;1.15;;;;;;;19.96;23.30;100925.78;5043737;28;20041;-84
2022/04/19 08:51:15;;;;;;;1.23;1.00;;;;;;;20.27;22.38;100932.41;5039845;28;20069;-86
2022/04/19 08:59:55;;;;;;;3.57;2.70;;;;;;;21.28;20.97;100936.53;5016221;28;20052;-83
2022/04/19 09:02:34;;;;;;;4.18;3.78;;;;;;;21.29;21.01;100934.75;4995163;28;20050;-83
2022/04/19 09:05:32;;;;;;;7.63;4.78;;;;;;;21.24;19.91;100937.63;5027581;28;20052;-83
2022/04/19 09:08:21;;;;;;;5.82;2.33;;;;;;;21.59;20.10;100939.50;5030627;28;20060;-84
2022/04/19 09:10:50;;;;;;;1.42;1.25;;;;;;;22.04;19.83;100938.06;5028820;28;20236;-83
2022/04/19 09:14:05;;;;;;;1.77;1.67;;;;;;;22.52;18.90;100934.72;5038731;28;20041;-85
2022/04/19 09:16:36;;;;;;;5.28;1.60;;;;;;;22.33;19.71;100937.47;5022893;28;20189;-86
2022/04/19 09:19:06;;;;;;;1.13;1.13;;;;;;;22.65;19.98;100941.09;5020219;28;20068;-85
2022/04/19 09:21:51;;;;;;;4.50;1.38;;;;;;;22.56;19.35;100939.78;5038942;28;20060;-87
2022/04/19 09:24:29;;;;;;;2.88;0.73;;;;;;;22.41;19.43;100933.47;5039211;28;20275;-85
2022/04/19 09:26:57;;;;;;;0.80;0.77;;;;;;;22.83;19.61;100933.88;5029798;28;20053;-84
2022/04/19 09:29:41;;;;;;;0.80;0.80;;;;;;;23.07;18.71;100934.25;5040368;28;20045;-85
2022/04/19 09:32:13;;;;;;;3.50;0.77;;;;;;;23.03;19.37;100943.41;5028826;28;20076;-85
2022/04/19 09:34:48;;;;;;;1.75;0.77;;;;;;;23.33;19.40;100939.09;5062170;28;20048;-86
2022/04/19 09:37:15;;;;;;;0.90;0.90;;;;;;;23.68;19.25;100942.38;5045088;28;20040;-86
2022/04/19 09:40:02;;;;;;;3.30;0.90;;;;;;;24.31;18.23;100935.03;5018614;28;20060;-86
2022/04/19 09:42:38;;;;;;;0.85;0.85;;;;;;;25.00;18.01;100932.47;5023207;28;20047;-86
2022/04/19 09:45:14;;;;;;;1.45;0.70;;;;;;;24.93;17.33;100934.69;5027470;28;20096;-84
2022/04/19 09:47:59;;;;;;;0.85;0.70;;;;;;;24.62;18.31;100933.09;5030229;28;20133;-86
2022/04/19 09:50:28;;;;;;;1.92;0.70;;;;;;;24.37;18.59;100940.00;5038651;28;20048;-85
2022/04/19 09:53:02;;;;;;;0.60;0.60;;;;;;;24.14;18.14;100944.09;5028738;28;20141;-83
2022/04/19 09:55:32;;;;;;;1.52;0.93;;;;;;;23.64;18.51;100935.50;5023266;28;20045;-87
2022/04/19 09:58:02;;;;;;;0.70;0.60;;;;;;;23.86;18.41;100939.56;5052809;28;20052;-86
2022/04/19 10:00:40;;;;;;;0.82;0.82;;;;;;;23.86;17.94;100939.56;5041263;28;20045;-85
2022/04/19 10:08:40;;;;;;;0.77;0.77;;;;;;;23.31;18.94;100933.84;5038537;28;20029;-87
2022/04/19 10:11:19;;;;;;;0.57;0.40;;;;;;;23.25;19.23;100931.53;5038076;28;20052;-87
2022/04/19 10:13:46;;;;;;;2.47;0.80;;;;;;;23.01;19.22;100937.31;5018743;28;20045;-87
2022/04/19 10:16:22;;;;;;;1.90;0.50;;;;;;;22.65;19.50;100940.22;5034390;28;20133;-84
2022/04/19 10:18:50;;;;;;;1.73;0.60;;;;;;;22.03;20.07;100938.16;5044453;28;20105;-86
2022/04/19 10:21:25;;;;;;;0.52;0.38;;;;;;;21.63;20.16;100944.59;5023271;28;20113;-88
2022/04/19 10:24:10;;;;;;;1.50;0.82;;;;;;;22.07;19.94;100937.94;5035511;28;20119;-86
2022/04/19 10:26:53;;;;;;;1.08;0.90;;;;;;;22.91;19.07;100939.63;5018655;28;20053;-87
2022/04/19 10:29:24;;;;;;;0.70;0.70;;;;;;;23.57;18.29;100939.47;5033850;28;20092;-87
2022/04/19 10:32:41;;;;;;;0.43;0.40;;;;;;;24.31;17.70;100937.69;5017021;28;20119;-86
2022/04/19 10:35:09;;;;;;;1.73;0.60;;;;;;;24.55;17.70;100932.63;5016255;28;20080;-85
2022/04/19 10:37:39;;;;;;;1.63;0.55;;;;;;;25.43;17.16;100935.03;5032237;28;20045;-87
2022/04/19 10:40:10;;;;;;;0.75;0.70;;;;;;;26.71;16.52;100937.81;5020590;28;20046;-83
2022/04/19 10:42:42;;;;;;;5.05;1.00;;;;;;;27.46;15.97;100933.28;5024204;28;20057;-86
2022/04/19 10:45:25;;;;;;;2.23;0.77;;;;;;;27.93;14.95;100928.75;5021432;28;20258;-88
2022/04/19 10:47:55;;;;;;;0.77;0.77;;;;;;;27.79;15.27;100923.59;5026611;28;20384;-87
2022/04/19 10:50:35;;;;;;;1.42;0.82;;;;;;;27.52;15.60;100935.47;5041354;28;20042;-86
2022/04/19 10:53:12;;;;;;;4.75;3.53;;;;;;;27.74;15.17;100921.25;5039232;28;20257;-85
2022/04/19 10:55:57;;;;;;;1.52;1.42;;;;;;;28.40;14.33;100928.69;5033502;28;20125;-86
2022/04/19 10:58:48;;;;;;;2.33;1.38;;;;;;;28.02;14.35;100921.81;5028127;28;20435;-86
2022/04/19 11:01:33;;;;;;;1.55;0.68;;;;;;;27.58;14.01;100935.03;5030849;28;20053;-86
2022/04/19 11:04:00;;;;;;;1.65;0.60;;;;;;;27.35;14.79;100924.16;5012663;28;20084;-86
2022/04/19 11:06:40;;;;;;;0.90;0.90;;;;;;;28.02;14.48;100919.13;5019413;28;20377;-87
2022/04/19 11:09:23;;;;;;;0.52;0.50;;;;;;;27.82;14.11;100915.25;5037914;28;20129;-87
2022/04/19 11:12:09;;;;;;;0.85;0.75;;;;;;;28.18;13.54;100911.53;5024519;28;20051;-83
2022/04/19 11:14:40;;;;;;;0.85;0.85;;;;;;;28.68;13.30;100913.88;5022805;28;20126;-86
2022/04/19 11:17:30;;;;;;;1.55;1.02;;;;;;;28.22;13.68;100913.03;5038615;28;20055;-86
2022/04/19 11:20:15;;;;;;;1.23;0.50;;;;;;;28.11;13.40;100906.75;5017357;28;20080;-88
2022/04/19 11:22:58;;;;;;;0.50;0.50;;;;;;;28.68;13.23;100902.22;5027118;28;20053;-86
2022/04/19 11:25:42;;;;;;;1.10;0.50;;;;;;;29.71;12.60;100898.13;5037579;28;20495;-84
2022/04/19 11:28:11;;;;;;;2.28;1.25;;;;;;;29.86;12.42;100910.31;5039612;28;20041;-89
2022/04/19 11:30:56;;;;;;;0.65;0.65;;;;;;;29.24;11.94;100906.56;5039411;28;20392;-86
2022/04/19 11:33:31;;;;;;;1.05;1.05;;;;;;;28.79;12.74;100906.75;5030887;28;20046;-86
2022/04/19 11:36:15;;;;;;;0.70;0.63;;;;;;;29.85;12.34;100905.03;5031282;28;20054;-86
2022/04/19 11:38:49;;;;;;;3.15;1.13;;;;;;;30.38;12.17;100890.53;5025049;28;20563;-86
2022/04/19 11:46:58;;;;;;;1.98;0.57;;;;;;;30.44;11.73;100892.69;5045609;28;20045;-85
2022/04/19 11:49:36;;;;;;;0.40;0.40;;;;;;;30.73;11.14;100882.94;5019389;28;20083;-86
2022/04/19 11:52:09;;;;;;;1.00;0.60;;;;;;;30.08;11.38;100883.28;5019347;28;20392;-86
2022/04/19 11:54:39;;;;;;;1.63;1.00;;;;;;;30.01;11.99;100880.28;5017455;28;20041;-84
2022/04/19 11:57:11;;;;;;;0.90;0.90;;;;;;;29.82;12.04;100889.13;5020795;28;20096;-85
2022/04/19 11:59:41;;;;;;;1.30;0.80;;;;;;;29.15;11.80;100888.47;5031081;28;20053;-85
2022/04/19 12:02:22;;;;;;;1.15;1.05;;;;;;;29.68;11.78;100879.53;5034779;28;20057;-88
2022/04/19 12:04:56;;;;;;;0.70;0.70;;;;;;;30.16;11.96;100876.25;5019463;28;20129;-83
2022/04/19 12:07:25;;;;;;;1.10;1.05;;;;;;;31.07;11.22;100877.19;5017141;28;20041;-86
2022/04/19 12:09:53;;;;;;;6.40;1.17;;;;;;;30.95;11.30;100879.13;5024923;28;20057;-87
2022/04/19 12:12:21;;;;;;;2.88;0.80;;;;;;;30.51;11.32;100877.66;5017686;28;20061;-84
2022/04/19 12:14:56;;;;;;;0.65;0.43;;;;;;;30.29;11.29;100862.50;5047207;28;20509;-84
2022/04/19 12:17:23;;;;;;;2.90;0.88;;;;;;;30.30;11.02;100866.06;5021141;28;20441;-84
2022/04/19 12:20:02;;;;;;;1.38;0.60;;;;;;;30.40;10.70;100869.63;5019029;28;20128;-86
2022/04/19 12:22:30;;;;;;;0.50;0.50;;;;;;;30.28;10.66;100865.34;5035042;28;20087;-85
2022/04/19 12:24:59;;;;;;;0.60;0.60;;;;;;;29.99;10.63;100866.09;5022059;28;20037;-84
2022/04/19 12:27:33;;;;;;;1.17;0.40;;;;;;;30.08;11.40;100869.81;5019899;28;20045;-86
2022/04/19 12:30:12;;;;;;;;;;;;;;;30.18;10.35;100854.50;5014942;28;20046;-85
2022/04/19 12:32:59;;;;;;;1.42;0.47;;;;;;;30.18;10.77;100851.78;5035994;28;20367;-88